Estación Meteorológica Peña el Pijo (Robertgarden) [ 12/14/19 08:39:31 CET ]

Fecha Hora Presion(HPa) Temp (°C) Humedad % Rocio (°C) Viento ( m/s) Direccion Lluvia 1Hora(mm) Lluvia 24H(mm) LLuvia Total(mm)
2019-Sep-06 01:01:36 1012.000 14.9 86 12.6         391.83
2019-Sep-06 02:01:26 1012.200 15.1 87 13.0         391.83
2019-Sep-06 03:09:04 1011.700 15.4 88 13.4         391.83
2019-Sep-06 04:01:42 1011.300 15.9 88 13.9         391.83
2019-Sep-06 05:01:38 1011.100 15.4 88 13.4         391.83
2019-Sep-06 06:01:46 1011.500 15.4 88 13.4         391.83
2019-Sep-06 07:01:58 1011.300 14.7 89 12.9         391.83
2019-Sep-06 08:01:48 1011.300 13.9 89 12.1         391.83
2019-Sep-06 09:01:52 1011.700 15.6 90 14.0         391.83
2019-Sep-06 10:01:37 1011.700 19.6 85 17.0         391.83
2019-Sep-06 11:01:59 1011.700 22.1 71 16.6         391.83
2019-Sep-06 12:01:53 1011.700 25.1 58 16.2         391.83
2019-Sep-06 13:01:42 1011.500 26.8 52 16.1         391.83
2019-Sep-06 14:01:43 1011.400 25.1 52 14.5         391.83
2019-Sep-06 15:01:51 1010.800 26.9 48 14.9         391.83
2019-Sep-06 16:01:56 1010.200 27.4 46 14.7         391.83
2019-Sep-06 17:01:47 1009.900 27.8 46 15.1         391.83
2019-Sep-06 18:01:46 1009.600 26.0 48 14.1         391.83
2019-Sep-06 19:02:07 1009.700 24.4 54 14.5         391.83
2019-Sep-06 20:01:58 1010.200 21.9 63 14.5         391.83
2019-Sep-06 21:01:54 1010.700 20.1 71 14.7         391.83
2019-Sep-06 22:01:54 1011.400 19.1 75 14.5         391.83
2019-Sep-06 23:01:50 1011.900 18.8 76 14.5         391.83

Temperatura Máxima:27°    Temperatura Mínima:13°
Presión Máxima:1012.200 Hpa    Presión Mínima:1009.600 Hpa


Volver